Time;durP1;ratioP1;P1;durP2;ratioP2;P2;SDS_P1;SDS_P2;PMS_P1;PMS_P2;Temp;Humidity;BMP_temperature;BMP_pressure;BME280_temperature;BME280_humidity;BME280_pressure;Samples;Min_cycle;Max_cycle;Signal;HPM_P1;HPM_P2
2024/01/14 00:00:16;;;;;;;;;;;;;;;-5.73;77.64;97596.16;10319393;28;20057;-49
2024/01/14 00:05:14;;;;;;;67.23;33.17;;;;;;;-5.91;76.60;97580.78;10320169;28;19944;-49
2024/01/14 00:10:13;;;;;;;;;;;;;;;-6.05;77.59;97599.28;10319695;28;20059;-49
2024/01/14 00:15:12;;;;;;;69.10;30.60;;;;;;;-6.20;78.08;97586.56;10319338;28;19924;-48
2024/01/14 00:20:11;;;;;;;;;;;;;;;-6.17;78.13;97631.38;10320097;28;20037;-48
2024/01/14 00:25:11;;;;;;;62.27;31.13;;;;;;;-6.22;77.56;97592.31;10318359;28;19923;-48
2024/01/14 00:30:11;;;;;;;66.82;32.67;;;;;;;-6.28;77.44;97574.28;10316387;28;20112;-48
2024/01/14 00:35:10;;;;;;;64.75;29.50;;;;;;;-6.14;77.22;97588.63;10318725;28;20072;-48
2024/01/14 00:40:10;;;;;;;75.25;32.92;;;;;;;-6.21;77.53;97589.03;10323582;28;20133;-48
2024/01/14 00:45:09;;;;;;;74.30;35.53;;;;;;;-6.23;78.17;97580.47;10323581;28;20073;-48
2024/01/14 00:50:08;;;;;;;;;;;;;;;-6.16;77.56;97587.66;10325170;28;20033;-50
2024/01/14 00:55:08;;;;;;;79.57;37.10;;;;;;;-6.92;77.27;97478.69;10325868;28;19917;-49
2024/01/14 01:00:09;;;;;;;84.88;36.92;;;;;;;-6.48;78.66;97548.66;10325481;28;20109;-51
2024/01/14 01:05:08;;;;;;;91.72;40.40;;;;;;;-6.35;78.18;97578.94;10322402;28;20077;-48
2024/01/14 01:10:08;;;;;;;103.30;46.45;;;;;;;-6.27;78.48;97576.00;10322564;28;20610;-49
2024/01/14 01:15:09;;;;;;;113.25;51.05;;;;;;;-6.46;78.58;97541.19;10322825;28;20132;-49
2024/01/14 01:20:08;;;;;;;111.63;52.08;;;;;;;-6.42;77.94;97543.13;10323465;28;20495;-49
2024/01/14 01:25:10;;;;;;;125.10;55.10;;;;;;;-6.27;77.90;97569.31;10323534;28;20080;-48
2024/01/14 01:30:09;;;;;;;119.57;55.22;;;;;;;-6.46;78.16;97529.44;10324034;28;20800;-49
2024/01/14 01:35:08;;;;;;;118.80;56.65;;;;;;;-6.60;77.83;97508.41;10324061;28;20057;-48
2024/01/14 01:40:09;;;;;;;122.35;55.58;;;;;;;-6.23;77.57;97557.75;10323228;28;20077;-49
2024/01/14 01:45:09;;;;;;;136.35;60.20;;;;;;;-6.25;78.44;97555.13;10322023;28;20079;-48
2024/01/14 01:50:09;;;;;;;135.68;63.38;;;;;;;-6.26;77.84;97550.00;10322226;28;20120;-49
2024/01/14 01:55:09;;;;;;;126.07;58.20;;;;;;;-6.90;77.92;97441.81;10323536;28;20116;-50
2024/01/14 02:00:08;;;;;;;116.03;53.95;;;;;;;-6.26;77.49;97534.84;10322631;28;20079;-49
2024/01/14 02:05:08;;;;;;;150.00;67.57;;;;;;;-6.37;78.13;97524.09;10322979;28;20061;-49
2024/01/14 02:10:07;;;;;;;141.25;61.33;;;;;;;-6.63;77.62;97477.06;10320971;28;20100;-49
2024/01/14 02:15:07;;;;;;;125.68;62.45;;;;;;;-6.50;77.73;97499.75;10322683;28;20072;-49
2024/01/14 02:20:07;;;;;;;131.82;61.33;;;;;;;-6.40;77.75;97506.25;10322859;28;20061;-48
2024/01/14 02:25:07;;;;;;;145.07;68.65;;;;;;;-6.36;77.82;97521.66;10320588;28;20088;-49
2024/01/14 02:30:09;;;;;;;138.75;65.05;;;;;;;-6.72;77.66;97470.69;10321823;28;20073;-49
2024/01/14 02:35:08;;;;;;;142.23;66.55;;;;;;;-6.43;77.32;97516.13;10322194;28;20073;-49
2024/01/14 02:40:08;;;;;;;138.23;65.15;;;;;;;-6.48;77.19;97514.97;10321633;28;20068;-48
2024/01/14 02:45:07;;;;;;;122.50;57.70;;;;;;;-6.95;77.38;97435.63;10321593;28;20076;-49
2024/01/14 02:50:06;;;;;;;117.13;58.05;;;;;;;-6.78;77.67;97465.28;10320980;28;20065;-48
2024/01/14 02:55:06;;;;;;;110.30;55.25;;;;;;;-6.79;77.64;97470.22;10320746;28;20072;-49
2024/01/14 03:00:06;;;;;;;135.40;64.60;;;;;;;-6.60;77.03;97503.34;10319721;28;20164;-48
2024/01/14 03:05:06;;;;;;;118.63;60.53;;;;;;;-8.09;77.53;97231.22;10318482;28;20092;-48
2024/01/14 03:10:05;;;;;;;119.10;56.33;;;;;;;-7.25;77.71;97377.53;10321165;28;20112;-48
2024/01/14 03:15:04;;;;;;;128.68;56.78;;;;;;;-6.99;77.95;97433.72;10318737;28;20142;-48
2024/01/14 03:20:04;;;;;;;110.28;50.75;;;;;;;-6.94;77.81;97463.44;10320467;28;20061;-48
2024/01/14 03:25:03;;;;;;;115.20;54.58;;;;;;;-6.94;77.93;97452.53;10320399;28;20081;-48
2024/01/14 03:30:03;;;;;;;108.63;50.95;;;;;;;-8.22;78.26;97242.16;10319238;28;20578;-49
2024/01/14 03:35:02;;;;;;;120.78;54.47;;;;;;;-6.94;78.14;97452.53;10319101;28;20498;-48
2024/01/14 03:40:02;;;;;;;101.10;48.40;;;;;;;-7.33;77.97;97398.84;10317449;28;20514;-48
2024/01/14 03:45:02;;;;;;;85.70;41.97;;;;;;;-7.65;79.01;97399.34;10319415;28;20065;-48
2024/01/14 03:50:01;;;;;;;77.97;36.58;;;;;;;-7.39;79.30;97454.78;10319972;28;20069;-48
2024/01/14 03:55:00;;;;;;;86.15;41.53;;;;;;;-7.35;78.39;97440.72;10320195;28;20048;-48
2024/01/14 03:59:59;;;;;;;85.72;38.92;;;;;;;-7.38;78.45;97407.78;10318616;28;20041;-50
2024/01/14 04:04:58;;;;;;;95.30;44.10;;;;;;;-7.24;78.85;97461.56;10319474;28;20037;-48
2024/01/14 04:09:58;;;;;;;89.10;41.38;;;;;;;-7.42;78.86;97438.59;10319128;28;20420;-49
2024/01/14 04:14:56;;;;;;;79.80;38.65;;;;;;;-7.76;79.66;97402.84;10324821;28;20123;-48
2024/01/14 04:19:55;;;;;;;110.03;48.90;;;;;;;-7.51;79.36;97448.97;10326485;28;20051;-48
2024/01/14 04:24:54;;;;;;;76.20;37.60;;;;;;;-7.60;79.08;97446.75;10327484;28;20558;-50
2024/01/14 04:29:53;;;;;;;81.65;36.58;;;;;;;-7.62;79.25;97460.88;10325960;28;20407;-49
2024/01/14 04:34:52;;;;;;;63.85;29.33;;;;;;;-8.01;79.04;97363.47;10326381;28;20033;-49
2024/01/14 04:39:52;;;;;;;64.78;31.42;;;;;;;-7.54;78.62;97440.34;10326571;28;20136;-49
2024/01/14 04:44:51;;;;;;;85.00;39.38;;;;;;;-7.37;78.93;97462.44;10324543;28;20104;-48
2024/01/14 04:49:49;;;;;;;105.40;52.25;;;;;;;-7.71;78.84;97384.72;10325590;28;20047;-49
2024/01/14 04:54:49;;;;;;;120.20;56.85;;;;;;;-7.34;78.57;97456.72;10325971;28;20033;-48
2024/01/14 04:59:48;;;;;;;120.38;54.78;;;;;;;-7.82;79.31;97370.56;10323575;28;20134;-51
2024/01/14 05:04:47;;;;;;;127.28;60.72;;;;;;;-7.32;78.47;97442.56;10325349;28;20025;-48
2024/01/14 05:09:46;;;;;;;147.55;64.60;;;;;;;-7.35;78.56;97435.69;10324704;28;20084;-48
2024/01/14 05:14:45;;;;;;;132.48;59.53;;;;;;;-7.43;78.91;97417.56;10325524;28;20124;-48
2024/01/14 05:19:44;;;;;;;142.30;68.13;;;;;;;-7.27;78.98;97428.63;10323881;28;20053;-49
2024/01/14 05:24:44;;;;;;;151.93;70.63;;;;;;;-8.13;79.01;97293.09;10322068;28;20513;-50
2024/01/14 05:29:44;;;;;;;171.95;79.47;;;;;;;-7.57;78.70;97400.72;10321749;28;20092;-49
2024/01/14 05:34:46;;;;;;;217.63;100.75;;;;;;;-7.33;79.62;97440.84;10322769;28;20108;-48
2024/01/14 05:39:45;;;;;;;187.57;91.55;;;;;;;-7.28;78.71;97421.81;10322792;28;20072;-48
2024/01/14 05:44:44;;;;;;;133.80;67.18;;;;;;;-7.48;79.68;97418.06;10323979;28;20029;-48
2024/01/14 05:49:43;;;;;;;120.63;53.67;;;;;;;-7.21;79.07;97417.25;10323534;28;20037;-49
2024/01/14 05:54:46;;;;;;;112.35;53.08;;;;;;;-7.12;78.61;97393.38;10323693;28;20485;-47
2024/01/14 05:59:45;;;;;;;107.88;52.35;;;;;;;-7.45;78.61;97357.78;10323685;28;20076;-49
2024/01/14 06:04:44;;;;;;;141.13;72.65;;;;;;;-7.33;78.69;97382.84;10323287;28;20037;-47
2024/01/14 06:09:43;;;;;;;141.48;67.30;;;;;;;-7.58;79.85;97351.06;10322539;28;20515;-48
2024/01/14 06:14:42;;;;;;;132.30;65.63;;;;;;;-7.77;79.01;97288.59;10323410;28;20851;-50
2024/01/14 06:19:42;;;;;;;111.47;50.50;;;;;;;-7.59;79.52;97334.22;10322330;28;20061;-48
2024/01/14 06:24:40;;;;;;;87.47;43.53;;;;;;;-7.13;78.93;97369.84;10321083;28;20577;-48
2024/01/14 06:29:40;;;;;;;94.22;46.65;;;;;;;-6.82;78.74;97370.00;10321355;28;20041;-47
2024/01/14 06:34:41;;;;;;;83.82;39.83;;;;;;;-6.59;78.05;97355.34;10320609;28;20080;-49
2024/01/14 06:39:40;;;;;;;88.70;43.13;;;;;;;-6.73;78.25;97309.13;10320564;28;20073;-48
2024/01/14 06:44:39;;;;;;;112.63;51.53;;;;;;;-6.73;78.45;97297.38;10321928;28;20084;-48
2024/01/14 06:49:39;;;;;;;;;;;;;;;-6.16;78.04;97335.09;10321717;28;21151;-48
2024/01/14 06:54:39;;;;;;;142.63;71.15;;;;;;;-6.05;77.74;97328.16;10320723;28;20418;-48
2024/01/14 06:59:42;;;;;;;181.65;90.90;;;;;;;-5.98;77.67;97328.56;10320971;28;20084;-49
2024/01/14 07:04:41;;;;;;;167.65;86.03;;;;;;;-5.61;77.20;97344.88;10320265;28;20529;-48
2024/01/14 07:09:39;;;;;;;;;;;;;;;-5.39;77.89;97330.09;10321030;28;20077;-48
2024/01/14 07:14:38;;;;;;;142.77;74.30;;;;;;;-5.66;77.61;97235.94;10318301;28;19917;-51
2024/01/14 07:19:37;;;;;;;;;;;;;;;-4.87;75.51;97326.91;10319628;28;20033;-49
2024/01/14 07:24:36;;;;;;;180.13;95.72;;;;;;;-4.62;75.72;97337.50;10318206;28;19921;-48
2024/01/14 07:29:35;;;;;;;194.43;102.03;;;;;;;-5.80;76.13;97098.78;10317332;28;20065;-49
2024/01/14 07:34:37;;;;;;;206.77;114.95;;;;;;;-4.38;74.63;97299.03;10320235;28;20026;-49
2024/01/14 07:39:36;;;;;;;239.43;130.68;;;;;;;-5.20;74.00;97098.41;10319273;28;20127;-49
2024/01/14 07:44:35;;;;;;;252.98;141.00;;;;;;;-3.82;73.49;97274.69;10320386;28;20073;-49
2024/01/14 07:49:34;;;;;;;218.10;126.50;;;;;;;-3.52;73.46;97267.63;10318538;28;20422;-50
2024/01/14 07:54:33;;;;;;;236.20;131.55;;;;;;;-3.29;72.57;97258.53;10317537;28;20041;-50
2024/01/14 07:59:32;;;;;;;201.48;116.18;;;;;;;-3.14;72.08;97265.94;10319026;28;20060;-49
2024/01/14 08:04:31;;;;;;;157.65;92.18;;;;;;;-2.86;70.86;97278.19;10319510;28;20036;-49
2024/01/14 08:09:30;;;;;;;152.23;86.40;;;;;;;-2.51;71.66;97286.44;10317553;28;20033;-50
2024/01/14 08:14:30;;;;;;;140.35;81.95;;;;;;;-2.38;72.03;97259.84;10318941;28;20026;-49
2024/01/14 08:19:29;;;;;;;135.57;82.97;;;;;;;-1.86;72.69;97259.44;10319500;28;20087;-48
2024/01/14 08:24:28;;;;;;;107.47;64.50;;;;;;;-1.59;72.93;97239.28;10317630;28;20041;-51
2024/01/14 08:29:27;;;;;;;111.93;65.55;;;;;;;-0.93;71.59;97290.09;10318262;28;20088;-51
2024/01/14 08:34:26;;;;;;;83.28;54.55;;;;;;;-0.59;72.32;97260.72;10319150;28;20043;-49
2024/01/14 08:39:25;;;;;;;73.65;43.97;;;;;;;-0.07;71.16;97251.38;10317552;28;20041;-49
2024/01/14 08:44:24;;;;;;;70.85;44.55;;;;;;;-0.00;68.35;97176.78;10318520;28;20971;-48
2024/01/14 08:49:24;;;;;;;77.32;45.22;;;;;;;0.98;66.91;97250.31;10318561;28;20816;-48
2024/01/14 08:54:23;;;;;;;79.28;49.78;;;;;;;1.26;64.15;97224.69;10317355;28;20076;-49
2024/01/14 08:59:22;;;;;;;62.22;39.53;;;;;;;1.82;62.23;97231.22;10319631;28;20072;-50
2024/01/14 09:04:21;;;;;;;22.52;13.60;;;;;;;2.32;62.39;97231.56;10325774;28;20053;-49
2024/01/14 09:09:20;;;;;;;12.73;7.70;;;;;;;2.65;47.70;97177.66;10324852;28;20422;-50
2024/01/14 09:14:19;;;;;;;10.25;7.20;;;;;;;3.57;48.04;97211.91;10325053;28;20071;-48
2024/01/14 09:19:18;;;;;;;14.52;7.78;;;;;;;4.31;47.93;97219.06;10323750;28;20558;-48
2024/01/14 09:24:17;;;;;;;16.25;9.38;;;;;;;4.79;46.56;97224.91;10323088;28;20558;-48
2024/01/14 09:29:16;;;;;;;14.55;9.57;;;;;;;5.17;41.49;97232.25;10324585;28;20562;-48
2024/01/14 09:34:15;;;;;;;7.68;5.90;;;;;;;5.29;38.31;97199.81;10324364;28;20507;-49
2024/01/14 09:39:14;;;;;;;8.57;5.80;;;;;;;5.46;37.97;97178.53;10323863;28;20128;-46
2024/01/14 09:44:17;;;;;;;8.25;6.25;;;;;;;6.06;39.42;97210.81;10324441;28;20496;-48
2024/01/14 09:49:19;;;;;;;20.63;14.13;;;;;;;6.26;38.30;97198.09;10322428;28;20645;-47
2024/01/14 09:54:18;;;;;;;9.60;6.55;;;;;;;6.39;37.00;97188.72;10323102;28;20121;-49
2024/01/14 09:59:17;;;;;;;12.32;7.18;;;;;;;6.40;35.30;97154.41;10323218;28;20120;-49
2024/01/14 10:04:17;;;;;;;;;;;;;;;6.80;35.80;97186.38;10323661;28;20061;-49
2024/01/14 10:09:17;;;;;;;8.53;5.90;;;;;;;6.27;34.42;97096.75;10322375;28;20427;-48
2024/01/14 10:14:16;;;;;;;10.23;6.20;;;;;;;6.74;35.42;97146.81;10322642;28;20084;-48
2024/01/14 10:19:15;;;;;;;8.30;6.40;;;;;;;6.89;36.38;97135.69;10321348;28;20068;-49
2024/01/14 10:24:14;;;;;;;7.75;6.00;;;;;;;6.94;35.68;97127.13;10321931;28;20391;-47
2024/01/14 10:29:14;;;;;;;6.70;5.45;;;;;;;7.33;34.52;97151.28;10321623;28;20053;-50
2024/01/14 10:34:16;;;;;;;7.00;5.60;;;;;;;7.00;33.44;97079.84;10322484;28;20080;-47
2024/01/14 10:39:16;;;;;;;11.65;9.23;;;;;;;7.20;32.41;97134.94;10322657;28;20073;-49
2024/01/14 10:44:16;;;;;;;12.25;9.00;;;;;;;6.27;32.42;96939.59;10320587;28;20072;-49
2024/01/14 10:49:17;;;;;;;9.40;6.85;;;;;;;7.22;30.71;97049.78;10321825;28;20060;-50
2024/01/14 10:54:22;;;;;;;11.07;6.93;;;;;;;7.74;31.83;97100.59;10320820;28;20121;-49
2024/01/14 10:59:22;;;;;;;9.70;5.90;;;;;;;8.24;33.23;97102.25;10321253;28;20120;-48
2024/01/14 11:04:22;;;;;;;6.90;5.47;;;;;;;7.96;30.26;97083.34;10321278;28;20539;-49
2024/01/14 11:09:22;;;;;;;9.85;5.97;;;;;;;7.79;29.64;97091.13;10320763;28;20798;-48
2024/01/14 11:14:34;;;;;;;8.18;6.07;;;;;;;7.72;29.59;97079.94;10318326;28;20450;-48
2024/01/14 11:19:36;;;;;;;8.43;5.47;;;;;;;7.96;30.00;97075.59;10318302;28;20073;-50
2024/01/14 11:24:35;;;;;;;9.75;6.90;;;;;;;8.28;30.84;97071.22;10319059;28;20073;-47
2024/01/14 11:29:36;;;;;;;7.20;4.95;;;;;;;8.01;29.00;97064.41;10318676;28;20069;-50
2024/01/14 11:34:47;;;;;;;8.73;5.90;;;;;;;8.42;31.26;97065.16;10320200;28;20144;-48
2024/01/14 11:39:46;;;;;;;6.60;5.78;;;;;;;8.33;29.38;97044.50;10319833;28;20810;-47
2024/01/14 11:44:45;;;;;;;14.63;5.85;;;;;;;8.14;28.83;97028.19;10319941;28;20968;-47
2024/01/14 11:49:51;;;;;;;5.90;4.97;;;;;;;8.42;30.24;97023.78;10319802;28;20374;-47
2024/01/14 11:54:50;;;;;;;5.95;5.25;;;;;;;7.57;30.72;96866.53;10319333;28;20144;-47
2024/01/14 11:59:50;;;;;;;6.25;4.65;;;;;;;8.31;29.80;96995.38;10319284;28;20083;-47
2024/01/14 12:04:51;;;;;;;6.72;5.47;;;;;;;8.14;30.67;96967.03;10319509;28;20136;-48
2024/01/14 12:09:54;;;;;;;7.13;5.32;;;;;;;8.31;28.37;97000.56;10319428;28;20081;-48
2024/01/14 12:14:54;;;;;;;5.88;4.90;;;;;;;8.09;29.11;97010.13;10318521;28;20080;-50
2024/01/14 12:19:57;;;;;;;7.63;4.82;;;;;;;8.04;29.99;97002.38;10316943;28;20149;-48
2024/01/14 12:24:56;;;;;;;5.93;5.05;;;;;;;7.70;28.77;96980.09;10319075;28;20080;-49
2024/01/14 12:29:55;;;;;;;8.40;6.85;;;;;;;7.96;28.57;97019.63;10318040;28;20072;-48
2024/01/14 12:34:54;;;;;;;6.40;5.55;;;;;;;7.83;29.82;97013.63;10322646;28;20033;-48
2024/01/14 12:39:53;;;;;;;7.72;5.97;;;;;;;7.47;28.64;97001.63;10326062;28;20152;-48
2024/01/14 12:44:52;;;;;;;7.07;5.45;;;;;;;7.60;29.10;97018.84;10325886;28;20060;-48
2024/01/14 12:49:54;;;;;;;6.38;5.25;;;;;;;7.59;29.30;97029.16;10326187;28;20029;-48
2024/01/14 12:54:53;;;;;;;11.77;6.85;;;;;;;7.67;30.49;97037.78;10325579;28;20080;-47
2024/01/14 12:59:52;;;;;;;19.20;10.32;;;;;;;7.69;32.51;97009.38;10325761;28;20399;-48
2024/01/14 13:04:51;;;;;;;8.68;6.28;;;;;;;7.45;30.65;97024.00;10325732;28;20030;-48
2024/01/14 13:09:50;;;;;;;5.60;5.00;;;;;;;7.21;27.04;97023.09;10323177;28;20072;-49
2024/01/14 13:14:49;;;;;;;10.57;8.63;;;;;;;7.38;27.75;97030.00;10323642;28;20129;-50
2024/01/14 13:19:48;;;;;;;7.05;6.35;;;;;;;7.66;29.61;97046.34;10324538;28;20064;-49
2024/01/14 13:24:47;;;;;;;7.90;6.22;;;;;;;7.68;30.00;97046.38;10324761;28;20041;-49
2024/01/14 13:29:47;;;;;;;8.70;6.72;;;;;;;7.66;30.66;97047.25;10323005;28;20064;-49
2024/01/14 13:34:46;;;;;;;7.97;6.35;;;;;;;7.46;31.14;97023.16;10323271;28;20121;-51
2024/01/14 13:39:45;;;;;;;8.70;6.93;;;;;;;7.13;29.43;97024.84;10323879;28;20025;-52
2024/01/14 13:44:44;;;;;;;8.18;6.05;;;;;;;7.24;30.82;97038.63;10323003;28;20625;-49
2024/01/14 13:49:43;;;;;;;8.85;6.70;;;;;;;7.07;30.90;97042.88;10322912;28;20115;-49
2024/01/14 13:54:44;;;;;;;7.43;5.80;;;;;;;7.22;31.24;97050.66;10322554;28;20033;-48
2024/01/14 13:59:43;;;;;;;12.23;7.60;;;;;;;7.05;30.34;97047.16;10322398;28;20076;-49
2024/01/14 14:04:42;;;;;;;8.60;5.72;;;;;;;6.87;32.01;97013.63;10322083;28;20538;-47
2024/01/14 14:09:41;;;;;;;10.73;7.72;;;;;;;7.07;33.07;97071.25;10320026;28;20412;-48
2024/01/14 14:14:40;;;;;;;12.43;8.10;;;;;;;6.93;30.50;97072.94;10321886;28;20037;-49
2024/01/14 14:19:39;;;;;;;12.15;9.10;;;;;;;6.93;32.63;97048.00;10321754;28;20116;-48
2024/01/14 14:24:38;;;;;;;13.18;8.85;;;;;;;6.81;31.53;97061.75;10321178;28;20049;-49
2024/01/14 14:29:37;;;;;;;9.80;7.30;;;;;;;6.80;33.17;97065.19;10321442;28;20069;-51
2024/01/14 14:34:36;;;;;;;9.20;7.28;;;;;;;5.73;33.91;96887.03;10321604;28;20117;-49
2024/01/14 14:39:34;;;;;;;12.98;8.60;;;;;;;6.59;33.18;97049.66;10320620;28;20036;-49
2024/01/14 14:44:34;;;;;;;12.95;8.95;;;;;;;6.39;33.96;97042.69;10321911;28;20547;-49
2024/01/14 14:49:33;;;;;;;22.80;15.38;;;;;;;6.32;35.27;97046.09;10320429;28;20060;-49
2024/01/14 14:54:32;;;;;;;15.13;8.90;;;;;;;5.89;33.82;97012.41;10320322;28;20025;-50
2024/01/14 14:59:31;;;;;;;10.93;8.27;;;;;;;6.04;33.73;97057.97;10320048;28;20029;-49
2024/01/14 15:04:30;;;;;;;13.13;7.50;;;;;;;5.77;34.00;97045.81;10319729;28;20084;-51
2024/01/14 15:09:30;;;;;;;10.70;8.00;;;;;;;5.84;34.36;97055.31;10319135;28;20270;-48
2024/01/14 15:14:29;;;;;;;17.48;11.70;;;;;;;5.46;35.08;97034.44;10320129;28;20069;-48
2024/01/14 15:19:28;;;;;;;22.70;13.38;;;;;;;5.35;36.11;97049.81;10317901;28;20038;-48
2024/01/14 15:24:27;;;;;;;26.98;16.35;;;;;;;5.40;36.66;97070.44;10318903;28;20756;-50
2024/01/14 15:29:26;;;;;;;;;;;;;;;5.31;36.57;97084.06;10319615;28;20060;-48
2024/01/14 15:34:25;;;;;;;11.93;10.23;;;;;;;5.20;37.02;97095.97;10318647;28;19921;-50
2024/01/14 15:39:24;;;;;;;16.83;10.23;;;;;;;4.88;36.74;97088.78;10318327;28;20034;-49
2024/01/14 15:44:23;;;;;;;16.90;12.15;;;;;;;4.46;36.48;97026.63;10319466;28;20053;-50
2024/01/14 15:49:22;;;;;;;13.13;8.63;;;;;;;4.52;37.05;97036.09;10318396;28;20039;-47
2024/01/14 15:54:22;;;;;;;14.57;10.38;;;;;;;4.86;37.23;97106.72;10317977;28;20784;-49
2024/01/14 15:59:21;;;;;;;19.40;12.52;;;;;;;4.57;37.67;97072.13;10317393;28;20092;-48
2024/01/14 16:04:20;;;;;;;19.67;15.20;;;;;;;4.55;37.96;97113.25;10319048;28;20541;-49
2024/01/14 16:09:19;;;;;;;25.35;17.88;;;;;;;4.58;38.13;97145.81;10322117;28;20562;-51
2024/01/14 16:14:18;;;;;;;26.33;15.73;;;;;;;4.37;38.68;97139.53;10327985;28;20076;-51
2024/01/14 16:19:22;;;;;;;26.90;16.55;;;;;;;4.19;39.29;97141.84;10326155;28;20024;-50
2024/01/14 16:24:21;;;;;;;24.77;15.70;;;;;;;4.05;39.39;97151.91;10322653;28;20069;-48
2024/01/14 16:29:20;;;;;;;26.10;17.13;;;;;;;3.38;39.79;97073.06;10325893;28;20090;-49
2024/01/14 16:34:19;;;;;;;;;;;;;;;3.68;40.66;97153.06;10326581;28;20079;-50
2024/01/14 16:39:18;;;;;;;22.98;16.40;;;;;;;3.56;40.48;97156.28;10325659;28;19975;-49
2024/01/14 16:44:17;;;;;;;22.92;16.02;;;;;;;3.46;40.40;97162.09;10326041;28;20025;-49
2024/01/14 16:49:16;;;;;;;21.98;15.23;;;;;;;3.29;41.28;97170.34;10324497;28;20108;-50
2024/01/14 16:54:15;;;;;;;24.38;17.20;;;;;;;2.93;41.94;97143.22;10325384;28;20095;-49
2024/01/14 16:59:14;;;;;;;20.73;14.93;;;;;;;2.50;43.21;97098.81;10323578;28;20061;-49
2024/01/14 17:04:13;;;;;;;21.27;14.60;;;;;;;2.67;43.14;97167.44;10324512;28;20033;-49
2024/01/14 17:09:12;;;;;;;19.08;12.48;;;;;;;2.62;43.50;97163.94;10324110;28;20065;-48
2024/01/14 17:14:11;;;;;;;;;;;;;;;2.58;43.30;97155.31;10324965;28;20120;-48
2024/01/14 17:19:10;;;;;;;10.55;8.13;;;;;;;2.68;43.06;97158.94;10323774;28;19963;-48
2024/01/14 17:24:09;;;;;;;10.80;8.35;;;;;;;2.26;42.93;97076.13;10324028;28;20045;-49
2024/01/14 17:29:10;;;;;;;14.02;9.30;;;;;;;2.62;43.16;97138.31;10324500;28;20025;-50
2024/01/14 17:34:09;;;;;;;12.32;8.15;;;;;;;2.83;42.82;97138.72;10322574;28;20175;-49
2024/01/14 17:39:09;;;;;;;11.50;7.68;;;;;;;2.88;42.83;97129.44;10322658;28;20053;-49
2024/01/14 17:44:08;;;;;;;12.43;9.90;;;;;;;3.16;42.64;97143.63;10324669;28;20029;-47
2024/01/14 17:49:07;;;;;;;16.05;10.43;;;;;;;2.96;42.08;97088.59;10321041;28;20048;-49
2024/01/14 17:54:07;;;;;;;30.80;18.52;;;;;;;3.16;42.56;97148.75;10321993;28;20060;-49
2024/01/14 17:59:06;;;;;;;27.58;18.27;;;;;;;2.89;42.97;97117.50;10322884;28;20538;-50
2024/01/14 18:04:05;;;;;;;38.05;20.77;;;;;;;2.66;44.27;97140.09;10323217;28;20069;-49
2024/01/14 18:09:04;;;;;;;31.13;17.58;;;;;;;2.15;44.63;97111.75;10322673;28;20034;-50
2024/01/14 18:14:03;;;;;;;23.45;14.30;;;;;;;2.26;45.11;97170.00;10322626;28;20400;-49
2024/01/14 18:19:01;;;;;;;29.90;15.65;;;;;;;1.60;46.04;97073.81;10323272;28;20029;-51
2024/01/14 18:24:01;;;;;;;36.97;16.90;;;;;;;1.95;45.43;97156.50;10322336;28;20140;-51
2024/01/14 18:29:02;;;;;;;29.80;18.65;;;;;;;1.85;46.41;97147.72;10322945;28;20085;-50
2024/01/14 18:34:02;;;;;;;29.15;18.20;;;;;;;1.76;46.32;97134.72;10321916;28;20476;-50
2024/01/14 18:39:01;;;;;;;35.60;20.85;;;;;;;1.64;46.82;97126.78;10318780;28;20136;-50
2024/01/14 18:44:00;;;;;;;33.40;19.90;;;;;;;1.20;46.77;97063.53;10321369;28;20034;-49
2024/01/14 18:48:59;;;;;;;32.00;20.10;;;;;;;1.44;47.38;97109.28;10321257;28;20067;-48
2024/01/14 18:53:58;;;;;;;32.80;22.13;;;;;;;1.48;47.54;97120.41;10321226;28;20076;-49
2024/01/14 18:58:57;;;;;;;27.40;17.63;;;;;;;1.07;47.78;97077.69;10318353;28;20036;-49
2024/01/14 19:03:56;;;;;;;34.50;20.05;;;;;;;1.25;48.84;97115.63;10319942;28;20039;-48
2024/01/14 19:08:58;;;;;;;23.35;16.50;;;;;;;0.95;48.79;97076.53;10319914;28;20037;-49
2024/01/14 19:13:57;;;;;;;32.38;20.40;;;;;;;1.17;49.21;97135.00;10320879;28;20083;-50
2024/01/14 19:18:56;;;;;;;31.30;19.15;;;;;;;1.22;49.43;97132.56;10321549;28;20069;-49
2024/01/14 19:23:58;;;;;;;34.70;21.98;;;;;;;0.76;49.55;97080.28;10319218;28;20077;-50
2024/01/14 19:28:56;;;;;;;71.55;38.85;;;;;;;0.63;50.29;97099.50;10319460;28;20069;-49
2024/01/14 19:33:55;;;;;;;47.53;28.02;;;;;;;0.90;50.45;97141.13;10319886;28;20031;-50
2024/01/14 19:38:54;;;;;;;28.55;16.35;;;;;;;0.41;50.35;97060.63;10318228;28;20124;-52
2024/01/14 19:43:53;;;;;;;25.38;16.63;;;;;;;0.87;50.34;97133.38;10318651;28;20887;-50
2024/01/14 19:48:52;;;;;;;28.02;18.45;;;;;;;0.92;50.47;97138.63;10318735;28;20418;-49
2024/01/14 19:53:51;;;;;;;15.15;9.55;;;;;;;0.23;51.02;97017.59;10319303;28;20036;-49
2024/01/14 19:58:50;;;;;;;18.25;12.70;;;;;;;1.03;50.74;97087.78;10319587;28;20041;-49
2024/01/14 20:03:49;;;;;;;33.53;20.98;;;;;;;1.43;50.19;97142.47;10319338;28;20029;-48
2024/01/14 20:08:49;;;;;;;42.70;22.95;;;;;;;1.31;50.49;97130.25;10318542;28;20091;-49
2024/01/14 20:13:48;;;;;;;39.10;22.85;;;;;;;1.17;50.93;97139.25;10318789;28;20068;-50
2024/01/14 20:18:47;;;;;;;36.95;21.85;;;;;;;1.18;50.96;97140.97;10318260;28;20036;-54
2024/01/14 20:23:46;;;;;;;34.38;19.58;;;;;;;1.15;51.05;97128.97;10317891;28;20041;-47
2024/01/14 20:28:45;;;;;;;24.80;13.27;;;;;;;1.12;51.41;97136.56;10317390;28;20037;-47
2024/01/14 20:33:43;;;;;;;27.80;16.00;;;;;;;1.01;51.57;97110.72;10317405;28;20052;-47
2024/01/14 20:38:42;;;;;;;25.45;14.25;;;;;;;0.92;51.23;97097.75;10318140;28;20040;-48
2024/01/14 20:43:41;;;;;;;24.20;13.93;;;;;;;0.75;51.33;97076.00;10317141;28;20037;-48
2024/01/14 20:48:40;;;;;;;22.45;12.85;;;;;;;0.97;51.10;97101.28;10317907;28;20045;-50
2024/01/14 20:53:39;;;;;;;18.00;10.77;;;;;;;0.76;51.33;97055.63;10317108;28;20037;-48
2024/01/14 20:58:38;;;;;;;12.57;9.40;;;;;;;1.11;51.06;97109.31;10324641;28;20037;-49
2024/01/14 21:03:38;;;;;;;16.92;9.63;;;;;;;1.39;50.96;97141.53;10325861;28;20040;-49
2024/01/14 21:08:37;;;;;;;25.15;13.98;;;;;;;1.01;50.73;97046.84;10325627;28;20079;-51
2024/01/14 21:13:36;;;;;;;29.48;18.45;;;;;;;1.54;50.61;97115.47;10325052;28;20061;-48
2024/01/14 21:18:36;;;;;;;30.90;19.83;;;;;;;1.44;50.94;97113.53;10325658;28;20109;-48
2024/01/14 21:23:36;;;;;;;101.88;49.92;;;;;;;1.07;51.32;97081.94;10324546;28;20515;-51
2024/01/14 21:28:35;;;;;;;29.27;16.75;;;;;;;1.31;51.29;97112.34;10324256;28;20083;-48
2024/01/14 21:33:34;;;;;;;19.63;11.88;;;;;;;1.28;51.39;97112.28;10323290;28;20109;-48
2024/01/14 21:38:34;;;;;;;18.25;10.90;;;;;;;1.44;51.28;97119.50;10322720;28;20490;-47
2024/01/14 21:43:36;;;;;;;29.98;19.17;;;;;;;1.60;50.72;97137.75;10322860;28;20072;-49
2024/01/14 21:48:36;;;;;;;28.33;16.65;;;;;;;1.30;50.88;97091.03;10322920;28;20585;-48
2024/01/14 21:53:35;;;;;;;58.03;33.45;;;;;;;1.42;51.27;97110.06;10324221;28;20065;-48
2024/01/14 21:58:34;;;;;;;40.95;22.88;;;;;;;1.05;51.87;97071.66;10323419;28;20025;-49
2024/01/14 22:03:33;;;;;;;37.58;19.20;;;;;;;1.30;52.09;97126.81;10323798;28;20122;-49
2024/01/14 22:08:35;;;;;;;39.00;19.35;;;;;;;1.28;52.73;97137.84;10321760;28;20778;-48
2024/01/14 22:13:35;;;;;;;73.05;39.70;;;;;;;1.14;52.83;97150.25;10320864;28;20076;-48
2024/01/14 22:18:34;;;;;;;;;;;;;;;0.86;53.85;97143.56;10323226;28;20084;-49
2024/01/14 22:23:32;;;;;;;69.60;39.20;;;;;;;0.71;54.44;97131.25;10322760;28;19952;-48
2024/01/14 22:28:31;;;;;;;66.25;37.17;;;;;;;0.05;54.03;97023.09;10322643;28;20116;-49
2024/01/14 22:33:30;;;;;;;68.22;39.38;;;;;;;0.62;54.20;97124.19;10323664;28;20048;-51
2024/01/14 22:38:30;;;;;;;76.95;43.67;;;;;;;0.44;55.17;97129.63;10321760;28;20076;-50
2024/01/14 22:43:28;;;;;;;65.40;36.70;;;;;;;0.29;55.20;97107.91;10321443;28;20057;-50
2024/01/14 22:48:27;;;;;;;71.30;36.92;;;;;;;0.21;55.38;97094.94;10320950;28;20063;-49
2024/01/14 22:53:26;;;;;;;74.35;37.30;;;;;;;0.29;55.95;97105.34;10319860;28;20116;-48
2024/01/14 22:58:25;;;;;;;64.75;32.97;;;;;;;0.10;56.69;97097.19;10321356;28;20116;-49